Time;durP1;ratioP1;P1;durP2;ratioP2;P2;SDS_P1;SDS_P2;PMS_P1;PMS_P2;Temp;Humidity;BMP_temperature;BMP_pressure;BME280_temperature;BME280_humidity;BME280_pressure;Samples;Min_cycle;Max_cycle;Signal;HPM_P1;HPM_P2
2024/01/11 00:01:38;;;;;;;92.35;36.35;;;;;;;;;;5841400;28;20045;-74
2024/01/11 00:04:29;;;;;;;95.97;35.70;;;;;;;;;;5841391;28;20065;-75
2024/01/11 00:07:20;;;;;;;91.78;36.78;;;;;;;;;;5824888;28;20145;-75
2024/01/11 00:10:11;;;;;;;87.68;33.47;;;;;;;;;;5825026;28;20050;-75
2024/01/11 00:13:02;;;;;;;113.57;32.75;;;;;;;;;;5842894;28;20810;-75
2024/01/11 00:15:53;;;;;;;71.40;30.92;;;;;;;;;;5857862;28;20050;-75
2024/01/11 00:18:44;;;;;;;79.65;33.88;;;;;;;;;;5837714;28;20049;-75
2024/01/11 00:21:35;;;;;;;83.65;32.72;;;;;;;;;;5841504;28;20046;-75
2024/01/11 00:24:31;;;;;;;86.90;33.63;;;;;;;;;;5825786;28;20445;-75
2024/01/11 00:27:28;;;;;;;81.07;34.20;;;;;;;;;;5842072;28;20050;-75
2024/01/11 00:30:19;;;;;;;99.30;36.00;;;;;;;;;;5841205;28;20073;-75
2024/01/11 00:33:10;;;;;;;89.38;37.38;;;;;;;;;;5858640;28;20133;-75
2024/01/11 00:36:01;;;;;;;76.50;33.03;;;;;;;;;;5864079;28;20183;-75
2024/01/11 00:38:52;;;;;;;71.10;33.80;;;;;;;;;;5865917;28;20092;-75
2024/01/11 00:41:43;;;;;;;93.57;35.10;;;;;;;;;;5865289;28;20419;-76
2024/01/11 00:44:34;;;;;;;61.05;30.70;;;;;;;;;;5863963;28;20045;-75
2024/01/11 00:47:24;;;;;;;75.30;33.28;;;;;;;;;;5863856;28;20388;-75
2024/01/11 00:50:15;;;;;;;83.38;36.38;;;;;;;;;;5865088;28;20511;-75
2024/01/11 00:53:06;;;;;;;93.25;37.80;;;;;;;;;;5863540;28;20045;-75
2024/01/11 00:55:57;;;;;;;93.28;36.20;;;;;;;;;;5863894;28;20049;-75
2024/01/11 00:58:48;;;;;;;75.28;33.13;;;;;;;;;;5864394;28;20107;-75
2024/01/11 01:01:39;;;;;;;84.32;31.75;;;;;;;;;;5858955;28;20050;-75
2024/01/11 01:04:30;;;;;;;71.78;33.67;;;;;;;;;;5855549;28;20045;-75
2024/01/11 01:07:20;;;;;;;99.90;39.20;;;;;;;;;;5879846;28;20049;-75
2024/01/11 01:10:11;;;;;;;77.97;34.65;;;;;;;;;;5863105;28;20364;-75
2024/01/11 01:13:02;;;;;;;100.47;35.78;;;;;;;;;;5879197;28;20045;-75
2024/01/11 01:15:53;;;;;;;70.05;33.85;;;;;;;;;;5864640;28;20060;-75
2024/01/11 01:18:44;;;;;;;89.40;39.58;;;;;;;;;;5878966;28;20045;-75
2024/01/11 01:21:35;;;;;;;81.63;35.63;;;;;;;;;;5846005;28;20049;-75
2024/01/11 01:24:25;;;;;;;104.53;37.72;;;;;;;;;;5862347;28;20045;-75
2024/01/11 01:27:16;;;;;;;80.97;36.35;;;;;;;;;;5878984;28;20058;-75
2024/01/11 01:30:08;;;;;;;90.13;37.65;;;;;;;;;;5845231;28;20042;-75
2024/01/11 01:32:59;;;;;;;93.32;37.97;;;;;;;;;;5841388;28;20045;-75
2024/01/11 01:35:50;;;;;;;78.45;35.15;;;;;;;;;;5840698;28;20065;-75
2024/01/11 01:38:41;;;;;;;94.30;38.58;;;;;;;;;;5854636;28;20058;-75
2024/01/11 01:41:32;;;;;;;84.68;38.35;;;;;;;;;;5839328;28;20042;-75
2024/01/11 01:44:23;;;;;;;94.82;37.72;;;;;;;;;;5840189;28;20082;-75
2024/01/11 01:47:13;;;;;;;103.75;38.60;;;;;;;;;;5839331;28;20045;-75
2024/01/11 01:50:05;;;;;;;100.18;40.13;;;;;;;;;;5855562;28;20464;-75
2024/01/11 01:52:57;;;;;;;85.53;38.42;;;;;;;;;;5839501;28;20072;-75
2024/01/11 01:55:51;;;;;;;80.00;34.55;;;;;;;;;;5840312;28;20416;-75
2024/01/11 01:58:43;;;;;;;95.75;36.90;;;;;;;;;;5855002;28;20357;-75
2024/01/11 02:01:34;;;;;;;76.55;36.65;;;;;;;;;;5840138;28;20045;-75
2024/01/11 02:04:25;;;;;;;97.53;36.45;;;;;;;;;;5838619;28;20046;-75
2024/01/11 02:07:15;;;;;;;70.68;38.17;;;;;;;;;;5838606;28;20427;-74
2024/01/11 02:10:09;;;;;;;66.93;35.17;;;;;;;;;;5838442;28;20500;-75
2024/01/11 02:13:00;;;;;;;70.72;36.75;;;;;;;;;;5855175;28;20056;-75
2024/01/11 02:15:51;;;;;;;81.15;38.80;;;;;;;;;;5854898;28;20045;-75
2024/01/11 02:18:42;;;;;;;75.32;35.05;;;;;;;;;;5838314;28;20400;-74
2024/01/11 02:21:33;;;;;;;88.65;34.95;;;;;;;;;;5838580;28;20069;-75
2024/01/11 02:24:24;;;;;;;95.55;38.70;;;;;;;;;;5838145;28;20045;-75
2024/01/11 02:27:15;;;;;;;92.80;30.33;;;;;;;;;;5838680;28;20063;-75
2024/01/11 02:30:06;;;;;;;97.78;38.38;;;;;;;;;;5839375;28;20042;-75
2024/01/11 02:32:57;;;;;;;89.68;33.80;;;;;;;;;;5840003;28;20058;-74
2024/01/11 02:35:49;;;;;;;79.80;34.13;;;;;;;;;;5839456;28;20642;-74
2024/01/11 02:38:42;;;;;;;72.30;33.03;;;;;;;;;;5838017;28;20412;-74
2024/01/11 02:41:35;;;;;;;84.18;34.40;;;;;;;;;;5854378;28;20362;-75
2024/01/11 02:44:26;;;;;;;79.50;33.85;;;;;;;;;;5838078;28;20077;-74
2024/01/11 02:47:17;;;;;;;73.85;29.23;;;;;;;;;;5838036;28;20542;-75
2024/01/11 02:50:08;;;;;;;92.90;36.97;;;;;;;;;;5837660;28;20065;-75
2024/01/11 02:52:59;;;;;;;72.75;35.70;;;;;;;;;;5854616;28;20057;-74
2024/01/11 02:55:50;;;;;;;92.13;33.80;;;;;;;;;;5838144;28;20092;-75
2024/01/11 02:58:41;;;;;;;89.68;35.75;;;;;;;;;;5839239;28;20073;-75
2024/01/11 03:01:32;;;;;;;82.47;32.15;;;;;;;;;;5839388;28;20042;-74
2024/01/11 03:04:23;;;;;;;105.57;32.58;;;;;;;;;;5839396;28;20522;-74
2024/01/11 03:07:14;;;;;;;76.82;31.65;;;;;;;;;;5838245;28;20495;-75
2024/01/11 03:10:05;;;;;;;81.30;31.65;;;;;;;;;;5837810;28;20050;-75
2024/01/11 03:12:57;;;;;;;62.80;31.23;;;;;;;;;;5839408;28;20038;-75
2024/01/11 03:15:48;;;;;;;75.97;38.05;;;;;;;;;;5839012;28;20041;-74
2024/01/11 03:18:39;;;;;;;69.72;35.50;;;;;;;;;;5837616;28;20049;-75
2024/01/11 03:21:30;;;;;;;78.35;37.10;;;;;;;;;;5839270;28;20500;-75
2024/01/11 03:24:21;;;;;;;84.63;35.67;;;;;;;;;;5837171;28;20050;-75
2024/01/11 03:27:12;;;;;;;103.60;36.92;;;;;;;;;;5837709;28;20512;-74
2024/01/11 03:30:04;;;;;;;75.65;32.72;;;;;;;;;;5837692;28;20054;-74
2024/01/11 03:32:55;;;;;;;94.13;30.10;;;;;;;;;;5854581;28;20392;-75
2024/01/11 03:35:46;;;;;;;62.45;32.60;;;;;;;;;;5838816;28;20507;-74
2024/01/11 03:38:37;;;;;;;83.57;35.58;;;;;;;;;;5837536;28;20045;-74
2024/01/11 03:41:28;;;;;;;84.88;33.53;;;;;;;;;;5853791;28;20426;-75
2024/01/11 03:44:19;;;;;;;74.85;30.45;;;;;;;;;;5837274;28;20057;-74
2024/01/11 03:47:09;;;;;;;64.78;31.63;;;;;;;;;;5837568;28;20083;-75
2024/01/11 03:50:00;;;;;;;96.07;29.20;;;;;;;;;;5837595;28;20503;-75
2024/01/11 03:52:51;;;;;;;71.00;30.00;;;;;;;;;;5839430;28;20042;-75
2024/01/11 03:55:42;;;;;;;64.18;31.25;;;;;;;;;;5837273;28;20042;-74
2024/01/11 03:58:32;;;;;;;56.58;28.15;;;;;;;;;;5853668;28;20129;-75
2024/01/11 04:01:23;;;;;;;74.22;28.25;;;;;;;;;;5854228;28;20135;-74
2024/01/11 04:04:14;;;;;;;48.28;25.92;;;;;;;;;;5841349;28;20065;-74
2024/01/11 04:07:05;;;;;;;62.63;28.00;;;;;;;;;;5841860;28;20369;-75
2024/01/11 04:09:56;;;;;;;67.95;27.08;;;;;;;;;;5841998;28;20053;-74
2024/01/11 04:12:46;;;;;;;74.65;28.55;;;;;;;;;;5842810;28;20046;-74
2024/01/11 04:15:37;;;;;;;76.30;30.00;;;;;;;;;;5841310;28;20042;-74
2024/01/11 04:18:28;;;;;;;84.32;28.27;;;;;;;;;;5857555;28;20045;-74
2024/01/11 04:21:30;;;;;;;81.95;29.77;;;;;;;;;;5841490;28;20049;-75
2024/01/11 04:24:21;;;;;;;78.18;28.75;;;;;;;;;;5842033;28;20567;-74
2024/01/11 04:27:11;;;;;;;55.88;29.45;;;;;;;;;;5842489;28;20045;-74
2024/01/11 04:30:02;;;;;;;87.00;30.05;;;;;;;;;;5857550;28;20048;-74
2024/01/11 04:32:53;;;;;;;63.85;29.67;;;;;;;;;;5841389;28;20583;-74
2024/01/11 04:35:44;;;;;;;58.30;28.73;;;;;;;;;;5840916;28;20046;-74
2024/01/11 04:38:35;;;;;;;67.80;27.38;;;;;;;;;;5842158;28;20037;-75
2024/01/11 04:41:26;;;;;;;71.28;31.17;;;;;;;;;;5842365;28;20041;-74
2024/01/11 04:44:17;;;;;;;62.33;28.30;;;;;;;;;;5840460;28;20185;-75
2024/01/11 04:47:08;;;;;;;87.32;37.80;;;;;;;;;;5842240;28;20478;-74
2024/01/11 04:49:59;;;;;;;82.38;35.10;;;;;;;;;;5841058;28;20208;-75
2024/01/11 04:52:50;;;;;;;86.80;33.88;;;;;;;;;;5849398;28;20053;-75
2024/01/11 04:55:41;;;;;;;67.72;30.48;;;;;;;;;;5841906;28;20042;-74
2024/01/11 04:58:32;;;;;;;60.97;28.60;;;;;;;;;;5840646;28;20407;-75
2024/01/11 05:01:22;;;;;;;64.10;31.35;;;;;;;;;;5856960;28;20060;-75
2024/01/11 05:04:13;;;;;;;65.85;33.17;;;;;;;;;;5841625;28;20057;-74
2024/01/11 05:07:04;;;;;;;64.68;29.13;;;;;;;;;;5842004;28;20045;-75
2024/01/11 05:09:55;;;;;;;61.53;25.75;;;;;;;;;;5857040;28;20050;-74
2024/01/11 05:12:45;;;;;;;64.47;30.77;;;;;;;;;;5840022;28;20080;-75
2024/01/11 05:15:36;;;;;;;68.18;30.45;;;;;;;;;;5839883;28;20042;-74
2024/01/11 05:18:27;;;;;;;96.85;38.38;;;;;;;;;;5839846;28;20395;-74
2024/01/11 05:21:22;;;;;;;88.88;31.80;;;;;;;;;;5839912;28;20615;-74
2024/01/11 05:24:13;;;;;;;101.45;43.63;;;;;;;;;;5839353;28;20046;-74
2024/01/11 05:27:04;;;;;;;112.38;42.50;;;;;;;;;;5839694;28;20042;-75
2024/01/11 05:29:55;;;;;;;105.03;39.33;;;;;;;;;;5839816;28;20058;-74
2024/01/11 05:32:45;;;;;;;70.03;33.33;;;;;;;;;;5840706;28;20119;-74
2024/01/11 05:35:36;;;;;;;86.97;39.35;;;;;;;;;;5839243;28;20065;-74
2024/01/11 05:38:27;;;;;;;85.60;39.03;;;;;;;;;;5839052;28;20480;-74
2024/01/11 05:41:18;;;;;;;90.13;44.03;;;;;;;;;;5822973;28;20145;-74
2024/01/11 05:44:09;;;;;;;90.63;39.08;;;;;;;;;;5838997;28;20056;-74
2024/01/11 05:47:00;;;;;;;110.38;42.83;;;;;;;;;;5856023;28;20460;-74
2024/01/11 05:49:51;;;;;;;104.80;38.85;;;;;;;;;;5862013;28;20496;-74
2024/01/11 05:52:42;;;;;;;129.63;47.00;;;;;;;;;;5878574;28;20411;-74
2024/01/11 05:55:33;;;;;;;133.38;46.47;;;;;;;;;;5878012;28;20125;-75
2024/01/11 05:58:23;;;;;;;206.05;61.15;;;;;;;;;;5878276;28;20041;-74
2024/01/11 06:01:14;;;;;;;110.18;48.92;;;;;;;;;;5846039;28;20045;-74
2024/01/11 06:04:05;;;;;;;158.77;53.63;;;;;;;;;;5864168;28;20115;-75
2024/01/11 06:06:56;;;;;;;177.27;54.58;;;;;;;;;;5862742;28;20046;-74
2024/01/11 06:09:47;;;;;;;139.60;54.33;;;;;;;;;;5863048;28;20041;-74
2024/01/11 06:12:37;;;;;;;184.13;59.65;;;;;;;;;;5863551;28;20046;-74
2024/01/11 06:15:28;;;;;;;119.03;47.80;;;;;;;;;;5878309;28;20100;-74
2024/01/11 06:18:19;;;;;;;98.55;47.88;;;;;;;;;;5878609;28;20348;-74
2024/01/11 06:21:10;;;;;;;119.80;48.53;;;;;;;;;;5862116;28;20053;-75
2024/01/11 06:24:03;;;;;;;132.63;51.38;;;;;;;;;;5877941;28;20045;-75
2024/01/11 06:26:54;;;;;;;104.40;51.92;;;;;;;;;;5878648;28;20046;-74
2024/01/11 06:29:44;;;;;;;120.10;49.55;;;;;;;;;;5878127;28;20411;-74
2024/01/11 06:32:35;;;;;;;148.18;53.65;;;;;;;;;;5861695;28;20415;-74
2024/01/11 06:35:26;;;;;;;121.00;46.80;;;;;;;;;;5877735;28;20456;-74
2024/01/11 06:38:17;;;;;;;110.53;46.95;;;;;;;;;;5861227;28;20046;-74
2024/01/11 06:41:08;;;;;;;116.47;49.40;;;;;;;;;;5861355;28;20453;-74
2024/01/11 06:43:58;;;;;;;139.27;51.88;;;;;;;;;;5878776;28;20136;-74
2024/01/11 06:46:51;;;;;;;131.80;54.00;;;;;;;;;;5877679;28;20042;-74
2024/01/11 06:49:42;;;;;;;129.45;58.50;;;;;;;;;;5877972;28;20069;-74
2024/01/11 06:52:34;;;;;;;114.00;50.40;;;;;;;;;;5841900;28;20160;-74
2024/01/11 06:55:25;;;;;;;129.65;54.60;;;;;;;;;;5855231;28;20048;-73
2024/01/11 06:58:16;;;;;;;145.40;55.42;;;;;;;;;;5839465;28;20065;-73
2024/01/11 07:01:07;;;;;;;169.63;62.28;;;;;;;;;;5838031;28;20128;-73
2024/01/11 07:03:58;;;;;;;157.70;64.20;;;;;;;;;;5838292;28;20522;-73
2024/01/11 07:06:49;;;;;;;189.00;78.20;;;;;;;;;;5837627;28;20125;-73
2024/01/11 07:09:40;;;;;;;193.05;77.07;;;;;;;;;;5837560;28;20558;-73
2024/01/11 07:12:30;;;;;;;178.82;65.43;;;;;;;;;;5837830;28;20049;-73
2024/01/11 07:15:22;;;;;;;342.67;122.75;;;;;;;;;;5837390;28;20511;-73
2024/01/11 07:18:13;;;;;;;284.52;98.10;;;;;;;;;;5837512;28;20049;-74
2024/01/11 07:21:04;;;;;;;194.68;59.30;;;;;;;;;;5837798;28;20046;-74
2024/01/11 07:23:56;;;;;;;177.45;56.85;;;;;;;;;;5839381;28;20046;-73
2024/01/11 07:26:47;;;;;;;152.18;52.65;;;;;;;;;;5837277;28;20106;-73
2024/01/11 07:29:38;;;;;;;84.80;39.50;;;;;;;;;;5838759;28;20049;-73
2024/01/11 07:32:29;;;;;;;89.55;34.55;;;;;;;;;;5837681;28;20204;-74
2024/01/11 07:35:20;;;;;;;104.82;41.60;;;;;;;;;;5837643;28;20136;-74
2024/01/11 07:38:11;;;;;;;94.63;43.50;;;;;;;;;;5842219;28;20053;-74
2024/01/11 07:41:02;;;;;;;86.68;36.08;;;;;;;;;;5826041;28;20536;-74
2024/01/11 07:43:53;;;;;;;99.82;39.10;;;;;;;;;;5841999;28;20436;-74
2024/01/11 07:46:45;;;;;;;148.82;49.70;;;;;;;;;;5843001;28;20042;-74
2024/01/11 07:49:44;;;;;;;143.90;50.83;;;;;;;;;;5841812;28;20080;-74
2024/01/11 07:52:35;;;;;;;137.55;43.13;;;;;;;;;;5841587;28;20042;-74
2024/01/11 07:55:26;;;;;;;100.28;34.53;;;;;;;;;;5857523;28;20038;-74
2024/01/11 07:58:17;;;;;;;69.97;31.70;;;;;;;;;;5857666;28;20064;-74
2024/01/11 08:01:08;;;;;;;61.00;26.35;;;;;;;;;;5857713;28;20046;-75
2024/01/11 08:04:02;;;;;;;68.32;25.58;;;;;;;;;;5841844;28;20412;-74
2024/01/11 08:06:53;;;;;;;65.15;24.20;;;;;;;;;;5841687;28;20049;-74
2024/01/11 08:09:47;;;;;;;67.70;24.58;;;;;;;;;;5841146;28;20042;-74
2024/01/11 08:12:38;;;;;;;71.40;27.40;;;;;;;;;;5857712;28;20050;-74
2024/01/11 08:15:29;;;;;;;83.78;30.40;;;;;;;;;;5842482;28;20527;-74
2024/01/11 08:18:20;;;;;;;74.40;27.88;;;;;;;;;;5840921;28;20062;-74
2024/01/11 08:21:11;;;;;;;81.43;29.10;;;;;;;;;;5841207;28;20072;-75
2024/01/11 08:24:02;;;;;;;91.47;35.13;;;;;;;;;;5840913;28;20392;-75
2024/01/11 08:26:53;;;;;;;97.35;37.80;;;;;;;;;;5857679;28;20064;-74
2024/01/11 08:29:46;;;;;;;83.63;32.70;;;;;;;;;;5857182;28;20571;-75
2024/01/11 08:32:39;;;;;;;53.67;21.17;;;;;;;;;;5842231;28;20120;-74
2024/01/11 08:35:32;;;;;;;58.10;24.92;;;;;;;;;;5856985;28;20049;-75
2024/01/11 08:38:24;;;;;;;51.50;23.15;;;;;;;;;;5840740;28;20180;-75
2024/01/11 08:41:15;;;;;;;78.78;27.90;;;;;;;;;;5840737;28;20056;-75
2024/01/11 08:44:06;;;;;;;72.57;34.15;;;;;;;;;;5840516;28;20061;-75
2024/01/11 08:46:58;;;;;;;81.40;36.88;;;;;;;;;;5840627;28;20069;-75
2024/01/11 08:49:49;;;;;;;78.57;34.00;;;;;;;;;;5840788;28;20509;-75
2024/01/11 08:52:42;;;;;;;58.20;27.27;;;;;;;;;;5840448;28;20371;-75
2024/01/11 08:55:33;;;;;;;96.85;37.97;;;;;;;;;;5841343;28;20046;-75
2024/01/11 08:58:24;;;;;;;112.55;42.83;;;;;;;;;;5856357;28;20042;-75
2024/01/11 09:01:15;;;;;;;56.65;24.33;;;;;;;;;;5840194;28;20188;-75
2024/01/11 09:04:08;;;;;;;62.65;19.90;;;;;;;;;;5839873;28;20058;-75
2024/01/11 09:06:59;;;;;;;45.05;19.77;;;;;;;;;;5840956;28;20045;-74
2024/01/11 09:09:50;;;;;;;55.08;21.75;;;;;;;;;;5840072;28;20068;-75
2024/01/11 09:12:47;;;;;;;65.55;25.50;;;;;;;;;;5855583;28;20045;-75
2024/01/11 09:15:38;;;;;;;50.80;20.88;;;;;;;;;;5839810;28;20464;-75
2024/01/11 09:18:28;;;;;;;44.95;22.50;;;;;;;;;;5856115;28;20048;-75
2024/01/11 09:21:19;;;;;;;49.05;18.77;;;;;;;;;;5839939;28;20054;-75
2024/01/11 09:24:10;;;;;;;43.45;17.73;;;;;;;;;;5855871;28;20054;-75
2024/01/11 09:27:01;;;;;;;40.92;18.30;;;;;;;;;;5839682;28;20651;-75
2024/01/11 09:29:52;;;;;;;49.97;21.38;;;;;;;;;;5856180;28;20079;-75
2024/01/11 09:32:47;;;;;;;48.97;16.88;;;;;;;;;;5839365;28;20519;-75
2024/01/11 09:35:39;;;;;;;42.17;19.25;;;;;;;;;;5839161;28;20046;-75
2024/01/11 09:38:30;;;;;;;40.80;16.38;;;;;;;;;;5839318;28;20042;-75
2024/01/11 09:41:21;;;;;;;38.78;15.30;;;;;;;;;;5858409;28;20181;-75
2024/01/11 09:44:13;;;;;;;43.17;17.52;;;;;;;;;;5845639;28;20462;-75
2024/01/11 09:47:07;;;;;;;36.13;17.13;;;;;;;;;;5845827;28;20046;-76
2024/01/11 09:50:03;;;;;;;43.90;19.00;;;;;;;;;;5839438;28;20062;-76
2024/01/11 09:52:54;;;;;;;41.70;19.38;;;;;;;;;;5839700;28;20148;-75
2024/01/11 09:55:44;;;;;;;26.10;11.75;;;;;;;;;;5840436;28;20064;-75
2024/01/11 09:58:36;;;;;;;15.65;7.80;;;;;;;;;;5838841;28;20049;-75
2024/01/11 10:01:27;;;;;;;23.45;9.98;;;;;;;;;;5839046;28;20050;-75
2024/01/11 10:04:18;;;;;;;31.00;10.73;;;;;;;;;;5822989;28;20458;-76
2024/01/11 10:07:10;;;;;;;23.85;8.05;;;;;;;;;;5839117;28;20049;-76
2024/01/11 10:10:03;;;;;;;38.10;10.10;;;;;;;;;;5839058;28;20163;-77
2024/01/11 10:12:55;;;;;;;18.60;7.97;;;;;;;;;;5840871;28;20052;-75
2024/01/11 10:15:46;;;;;;;13.65;7.28;;;;;;;;;;5839043;28;20420;-76
2024/01/11 10:18:37;;;;;;;27.13;9.52;;;;;;;;;;5838789;28;20072;-75
2024/01/11 10:21:30;;;;;;;17.67;9.02;;;;;;;;;;5855289;28;20385;-76
2024/01/11 10:24:23;;;;;;;17.85;7.00;;;;;;;;;;5838531;28;20054;-76
2024/01/11 10:27:13;;;;;;;21.17;7.63;;;;;;;;;;5840209;28;20049;-76
2024/01/11 10:30:07;;;;;;;19.63;6.35;;;;;;;;;;5839330;28;20054;-76
2024/01/11 10:32:58;;;;;;;13.45;7.03;;;;;;;;;;5839342;28;20121;-76
2024/01/11 10:35:50;;;;;;;18.30;5.82;;;;;;;;;;5840437;28;20222;-76
2024/01/11 10:38:42;;;;;;;16.05;7.57;;;;;;;;;;5854873;28;20042;-76
2024/01/11 10:41:50;;;;;;;18.65;7.88;;;;;;;;;;5838392;28;20053;-76
2024/01/11 10:44:46;;;;;;;11.15;5.22;;;;;;;;;;5838358;28;20049;-75
2024/01/11 10:47:40;;;;;;;17.30;7.30;;;;;;;;;;5822347;28;20056;-76
2024/01/11 10:50:41;;;;;;;20.83;8.77;;;;;;;;;;5837911;28;20103;-76
2024/01/11 10:53:45;;;;;;;19.02;7.38;;;;;;;;;;5853794;28;20042;-76
2024/01/11 10:56:40;;;;;;;16.95;7.03;;;;;;;;;;5838363;28;20519;-76
2024/01/11 10:59:35;;;;;;;14.77;5.82;;;;;;;;;;5839689;28;20116;-76
2024/01/11 11:02:26;;;;;;;13.70;5.43;;;;;;;;;;5838896;28;20064;-76
2024/01/11 11:05:19;;;;;;;24.13;8.02;;;;;;;;;;5838084;28;20068;-76
2024/01/11 11:08:12;;;;;;;15.00;7.28;;;;;;;;;;5838243;28;20451;-76
2024/01/11 11:11:05;;;;;;;18.83;7.68;;;;;;;;;;5839823;28;20046;-77
2024/01/11 11:14:03;;;;;;;19.85;8.05;;;;;;;;;;5844870;28;20455;-76
2024/01/11 11:16:54;;;;;;;17.65;6.45;;;;;;;;;;5844459;28;20053;-76
2024/01/11 11:19:45;;;;;;;15.60;6.57;;;;;;;;;;5842557;28;20384;-76
2024/01/11 11:22:35;;;;;;;24.85;8.73;;;;;;;;;;5842806;28;20046;-76
2024/01/11 11:25:29;;;;;;;18.05;8.77;;;;;;;;;;5826344;28;20591;-76
2024/01/11 11:28:20;;;;;;;17.75;6.55;;;;;;;;;;5842422;28;20077;-76
2024/01/11 11:31:12;;;;;;;21.40;7.25;;;;;;;;;;5842483;28;20046;-77
2024/01/11 11:34:06;;;;;;;16.90;7.15;;;;;;;;;;5842355;28;20116;-77
2024/01/11 11:36:59;;;;;;;16.48;7.93;;;;;;;;;;5843044;28;20057;-76
2024/01/11 11:39:50;;;;;;;14.07;7.00;;;;;;;;;;5842181;28;20045;-76
2024/01/11 11:42:41;;;;;;;12.52;5.93;;;;;;;;;;5842294;28;20046;-76
2024/01/11 11:45:32;;;;;;;21.55;8.10;;;;;;;;;;5843369;28;20053;-76
2024/01/11 11:48:30;;;;;;;13.23;7.63;;;;;;;;;;5843152;28;20061;-77
2024/01/11 11:51:23;;;;;;;35.70;8.40;;;;;;;;;;5843486;28;20508;-76
2024/01/11 11:54:19;;;;;;;14.15;6.68;;;;;;;;;;5841744;28;20049;-77
2024/01/11 11:57:10;;;;;;;22.65;8.15;;;;;;;;;;5842127;28;20046;-76
2024/01/11 12:00:06;;;;;;;26.27;10.05;;;;;;;;;;5841669;28;20038;-77
2024/01/11 12:02:58;;;;;;;24.55;8.02;;;;;;;;;;5842466;28;20856;-76
2024/01/11 12:05:48;;;;;;;22.20;7.68;;;;;;;;;;5841712;28;20057;-76
2024/01/11 12:08:45;;;;;;;17.08;8.27;;;;;;;;;;5843022;28;20416;-77
2024/01/11 12:11:36;;;;;;;13.82;5.80;;;;;;;;;;5841634;28;20050;-76
2024/01/11 12:14:28;;;;;;;20.60;8.70;;;;;;;;;;5841293;28;20053;-77
2024/01/11 12:17:19;;;;;;;13.65;7.13;;;;;;;;;;5841623;28;20400;-76
2024/01/11 12:20:10;;;;;;;15.15;6.68;;;;;;;;;;5841490;28;20137;-77
2024/01/11 12:23:02;;;;;;;26.13;9.93;;;;;;;;;;5857136;28;20100;-78
2024/01/11 12:25:53;;;;;;;28.17;8.82;;;;;;;;;;5843290;28;20414;-76
2024/01/11 12:28:44;;;;;;;16.98;7.47;;;;;;;;;;5841142;28;20037;-76
2024/01/11 12:31:35;;;;;;;12.60;8.95;;;;;;;;;;5841617;28;20049;-77
2024/01/11 12:34:28;;;;;;;13.02;7.65;;;;;;;;;;5841229;28;20560;-77
2024/01/11 12:37:22;;;;;;;15.07;7.75;;;;;;;;;;5857472;28;20050;-76
2024/01/11 12:40:12;;;;;;;22.55;9.75;;;;;;;;;;5840983;28;20057;-76
2024/01/11 12:43:04;;;;;;;20.88;7.82;;;;;;;;;;5841945;28;20077;-76
2024/01/11 12:45:56;;;;;;;17.17;8.13;;;;;;;;;;5842619;28;20046;-76
2024/01/11 12:48:48;;;;;;;19.75;7.47;;;;;;;;;;5857038;28;20385;-77
2024/01/11 12:51:39;;;;;;;12.85;6.72;;;;;;;;;;5840783;28;20042;-76
2024/01/11 12:54:33;;;;;;;11.15;7.30;;;;;;;;;;5841814;28;20407;-76
2024/01/11 12:57:24;;;;;;;13.70;5.70;;;;;;;;;;5842301;28;20478;-76
2024/01/11 13:00:16;;;;;;;14.18;7.90;;;;;;;;;;5841559;28;20053;-76
2024/01/11 13:03:07;;;;;;;19.30;8.63;;;;;;;;;;5841757;28;20497;-76
2024/01/11 13:05:58;;;;;;;16.45;7.40;;;;;;;;;;5841002;28;20081;-76
2024/01/11 13:08:50;;;;;;;15.50;7.00;;;;;;;;;;5840636;28;20042;-76
2024/01/11 13:11:41;;;;;;;12.95;6.97;;;;;;;;;;5824205;28;20080;-76
2024/01/11 13:14:32;;;;;;;14.63;7.35;;;;;;;;;;5841578;28;20046;-76
2024/01/11 13:17:23;;;;;;;20.27;8.48;;;;;;;;;;5856614;28;20050;-76
2024/01/11 13:20:15;;;;;;;23.83;8.27;;;;;;;;;;5839840;28;20052;-76
2024/01/11 13:23:19;;;;;;;14.65;7.88;;;;;;;;;;5839534;28;20050;-76
2024/01/11 13:26:10;;;;;;;33.95;9.88;;;;;;;;;;5841852;28;20045;-77
2024/01/11 13:29:01;;;;;;;20.98;9.25;;;;;;;;;;5814165;28;20762;-76
2024/01/11 13:31:52;;;;;;;16.17;8.18;;;;;;;;;;5846625;28;20051;-76
2024/01/11 13:34:44;;;;;;;20.15;7.15;;;;;;;;;;5884411;28;20051;-76
2024/01/11 13:37:34;;;;;;;23.08;10.48;;;;;;;;;;5886741;28;20045;-76
2024/01/11 13:40:28;;;;;;;25.98;11.80;;;;;;;;;;5886712;28;20049;-76
2024/01/11 13:43:19;;;;;;;22.92;11.68;;;;;;;;;;5885808;28;20057;-76
2024/01/11 13:46:11;;;;;;;20.35;9.80;;;;;;;;;;5885764;28;20522;-76
2024/01/11 13:49:02;;;;;;;21.80;9.70;;;;;;;;;;5886136;28;20045;-76
2024/01/11 13:51:54;;;;;;;12.73;7.88;;;;;;;;;;5886280;28;20051;-76
2024/01/11 13:54:51;;;;;;;13.52;7.95;;;;;;;;;;5887327;28;20048;-76
2024/01/11 13:57:42;;;;;;;19.38;7.53;;;;;;;;;;5869499;28;20041;-76
2024/01/11 14:00:33;;;;;;;23.65;10.25;;;;;;;;;;5885313;28;20044;-76
2024/01/11 14:03:24;;;;;;;20.25;10.43;;;;;;;;;;5885332;28;20068;-76
2024/01/11 14:06:15;;;;;;;22.23;10.48;;;;;;;;;;5885817;28;20507;-76
2024/01/11 14:09:09;;;;;;;25.77;9.57;;;;;;;;;;5868874;28;20879;-76
2024/01/11 14:12:00;;;;;;;18.08;8.98;;;;;;;;;;5902698;28;20056;-76
2024/01/11 14:14:51;;;;;;;18.23;8.50;;;;;;;;;;5868739;28;20116;-76
2024/01/11 14:17:42;;;;;;;18.33;7.70;;;;;;;;;;5885611;28;20045;-76
2024/01/11 14:20:34;;;;;;;23.23;10.43;;;;;;;;;;5885263;28;20041;-76
2024/01/11 14:23:25;;;;;;;21.05;10.07;;;;;;;;;;5861673;28;20064;-76
2024/01/11 14:26:16;;;;;;;21.30;10.10;;;;;;;;;;5867029;28;20059;-76
2024/01/11 14:29:06;;;;;;;25.92;10.90;;;;;;;;;;5885983;28;20135;-76
2024/01/11 14:31:57;;;;;;;26.08;10.13;;;;;;;;;;5887478;28;20044;-76
2024/01/11 14:34:49;;;;;;;28.33;12.13;;;;;;;;;;5884637;28;20089;-76
2024/01/11 14:37:40;;;;;;;22.73;10.70;;;;;;;;;;5887480;28;20513;-75
2024/01/11 14:40:31;;;;;;;26.83;8.18;;;;;;;;;;5875210;28;20461;-76
2024/01/11 14:43:22;;;;;;;20.45;10.20;;;;;;;;;;5898632;28;20044;-76
2024/01/11 14:46:13;;;;;;;21.15;9.88;;;;;;;;;;5869427;28;20037;-76
2024/01/11 14:49:04;;;;;;;17.55;10.68;;;;;;;;;;5868333;28;20037;-76
2024/01/11 14:51:55;;;;;;;30.88;10.05;;;;;;;;;;5885918;28;20049;-76
2024/01/11 14:54:49;;;;;;;26.17;9.00;;;;;;;;;;5867822;28;20037;-76
2024/01/11 14:57:41;;;;;;;25.45;12.20;;;;;;;;;;5883700;28;20139;-76
2024/01/11 15:00:32;;;;;;;31.60;15.02;;;;;;;;;;5884337;28;20048;-76
2024/01/11 15:03:22;;;;;;;24.15;8.82;;;;;;;;;;5900358;28;20048;-76
2024/01/11 15:06:13;;;;;;;25.35;11.38;;;;;;;;;;5886880;28;20040;-76
2024/01/11 15:09:04;;;;;;;26.23;10.95;;;;;;;;;;5885345;28;20128;-76
2024/01/11 15:11:55;;;;;;;22.75;9.30;;;;;;;;;;5884774;28;20049;-76
2024/01/11 15:14:49;;;;;;;17.88;8.30;;;;;;;;;;5884116;28;20410;-76
2024/01/11 15:17:40;;;;;;;19.95;11.45;;;;;;;;;;5884121;28;20045;-76
2024/01/11 15:20:31;;;;;;;27.90;10.27;;;;;;;;;;5884229;28;20091;-76
2024/01/11 15:23:22;;;;;;;24.65;11.88;;;;;;;;;;5884493;28;20049;-76
2024/01/11 15:26:13;;;;;;;29.27;12.63;;;;;;;;;;5883944;28;20522;-76
2024/01/11 15:29:03;;;;;;;41.38;15.32;;;;;;;;;;5884346;28;20048;-77
2024/01/11 15:31:54;;;;;;;25.25;12.82;;;;;;;;;;5885862;28;20072;-76
2024/01/11 15:34:45;;;;;;;32.90;11.13;;;;;;;;;;5883781;28;20041;-76
2024/01/11 15:37:36;;;;;;;31.63;11.65;;;;;;;;;;5900689;28;20056;-76
2024/01/11 15:40:27;;;;;;;26.77;12.90;;;;;;;;;;5885445;28;20044;-76
2024/01/11 15:43:18;;;;;;;20.33;11.57;;;;;;;;;;5883991;28;20045;-76
2024/01/11 15:46:10;;;;;;;25.55;13.68;;;;;;;;;;5867500;28;20052;-76
2024/01/11 15:49:00;;;;;;;27.33;11.40;;;;;;;;;;5883803;28;20056;-77
2024/01/11 15:51:52;;;;;;;24.70;10.70;;;;;;;;;;5868248;28;20414;-76
2024/01/11 15:54:43;;;;;;;35.30;11.15;;;;;;;;;;5867035;28;20418;-76
2024/01/11 15:57:35;;;;;;;32.25;10.90;;;;;;;;;;5876415;28;20049;-76
2024/01/11 16:00:26;;;;;;;26.13;9.82;;;;;;;;;;5888117;28;20045;-76
2024/01/11 16:03:16;;;;;;;26.67;12.40;;;;;;;;;;5888100;28;20053;-76
2024/01/11 16:06:07;;;;;;;24.73;10.75;;;;;;;;;;5887576;28;20048;-76
2024/01/11 16:08:58;;;;;;;32.72;10.35;;;;;;;;;;5889059;28;20041;-76
2024/01/11 16:11:49;;;;;;;23.88;9.50;;;;;;;;;;5872703;28;20045;-76
2024/01/11 16:14:44;;;;;;;19.35;8.57;;;;;;;;;;5889038;28;20106;-76
2024/01/11 16:17:35;;;;;;;23.75;9.40;;;;;;;;;;5870936;28;20060;-76
2024/01/11 16:20:26;;;;;;;31.17;9.23;;;;;;;;;;5887521;28;20041;-76
2024/01/11 16:23:18;;;;;;;19.98;9.63;;;;;;;;;;5887447;28;20127;-77
2024/01/11 16:26:11;;;;;;;18.35;9.60;;;;;;;;;;5887588;28;20521;-76
2024/01/11 16:29:02;;;;;;;21.73;10.20;;;;;;;;;;5887416;28;20041;-77
2024/01/11 16:31:53;;;;;;;17.58;7.53;;;;;;;;;;5887882;28;20392;-76
2024/01/11 16:34:44;;;;;;;22.00;9.27;;;;;;;;;;5888634;28;20434;-76
2024/01/11 16:37:34;;;;;;;32.15;11.48;;;;;;;;;;5887168;28;20091;-76
2024/01/11 16:40:26;;;;;;;18.35;10.43;;;;;;;;;;5870674;28;20407;-76